sensor_id;sensor_type;location;lat;lon;timestamp;P1;durP1;ratioP1;P2;durP2;ratioP2
11222;SDS011;5668;52.012;8.724;2023-04-01T00:00:08;3.67;;;0.93;;
11222;SDS011;5668;52.012;8.724;2023-04-01T00:02:36;2.20;;;0.80;;
11222;SDS011;5668;52.012;8.724;2023-04-01T00:05:03;1.20;;;1.03;;
11222;SDS011;5668;52.012;8.724;2023-04-01T00:07:31;3.10;;;1.00;;
11222;SDS011;5668;52.012;8.724;2023-04-01T00:09:58;3.87;;;0.77;;
11222;SDS011;5668;52.012;8.724;2023-04-01T00:12:26;4.20;;;0.97;;
11222;SDS011;5668;52.012;8.724;2023-04-01T00:14:53;1.70;;;0.77;;
11222;SDS011;5668;52.012;8.724;2023-04-01T00:17:21;1.23;;;0.80;;
11222;SDS011;5668;52.012;8.724;2023-04-01T00:19:49;1.97;;;0.87;;
11222;SDS011;5668;52.012;8.724;2023-04-01T00:22:16;1.27;;;0.60;;
11222;SDS011;5668;52.012;8.724;2023-04-01T00:24:43;2.93;;;1.10;;
11222;SDS011;5668;52.012;8.724;2023-04-01T00:27:11;1.87;;;0.80;;
11222;SDS011;5668;52.012;8.724;2023-04-01T00:29:41;2.90;;;0.80;;
11222;SDS011;5668;52.012;8.724;2023-04-01T00:32:08;1.50;;;0.90;;
11222;SDS011;5668;52.012;8.724;2023-04-01T00:34:37;1.67;;;0.87;;
11222;SDS011;5668;52.012;8.724;2023-04-01T00:37:04;4.77;;;1.00;;
11222;SDS011;5668;52.012;8.724;2023-04-01T00:39:32;1.03;;;0.80;;
11222;SDS011;5668;52.012;8.724;2023-04-01T00:42:01;1.50;;;0.60;;
11222;SDS011;5668;52.012;8.724;2023-04-01T00:44:30;1.50;;;0.90;;
11222;SDS011;5668;52.012;8.724;2023-04-01T00:46:59;2.53;;;0.87;;
11222;SDS011;5668;52.012;8.724;2023-04-01T00:49:28;1.70;;;0.80;;
11222;SDS011;5668;52.012;8.724;2023-04-01T00:52:00;1.63;;;0.63;;
11222;SDS011;5668;52.012;8.724;2023-04-01T00:54:30;1.30;;;0.70;;
11222;SDS011;5668;52.012;8.724;2023-04-01T00:56:59;1.10;;;0.63;;
11222;SDS011;5668;52.012;8.724;2023-04-01T00:59:30;0.83;;;0.70;;
11222;SDS011;5668;52.012;8.724;2023-04-01T01:02:00;4.20;;;0.80;;
11222;SDS011;5668;52.012;8.724;2023-04-01T01:04:29;1.37;;;0.60;;
11222;SDS011;5668;52.012;8.724;2023-04-01T01:07:03;1.50;;;0.80;;
11222;SDS011;5668;52.012;8.724;2023-04-01T01:09:41;1.07;;;0.60;;
11222;SDS011;5668;52.012;8.724;2023-04-01T01:12:16;2.53;;;0.77;;
11222;SDS011;5668;52.012;8.724;2023-04-01T01:14:49;2.80;;;0.97;;
11222;SDS011;5668;52.012;8.724;2023-04-01T01:17:27;2.00;;;0.80;;
11222;SDS011;5668;52.012;8.724;2023-04-01T01:23:34;1.40;;;0.70;;
11222;SDS011;5668;52.012;8.724;2023-04-01T01:26:21;1.67;;;0.63;;
11222;SDS011;5668;52.012;8.724;2023-04-01T01:29:16;2.20;;;0.60;;
11222;SDS011;5668;52.012;8.724;2023-04-01T01:31:58;1.43;;;0.70;;
11222;SDS011;5668;52.012;8.724;2023-04-01T01:34:35;1.13;;;0.77;;
11222;SDS011;5668;52.012;8.724;2023-04-01T01:37:08;1.00;;;0.70;;
11222;SDS011;5668;52.012;8.724;2023-04-01T01:39:39;3.50;;;0.80;;
11222;SDS011;5668;52.012;8.724;2023-04-01T01:42:09;0.83;;;0.60;;
11222;SDS011;5668;52.012;8.724;2023-04-01T01:44:41;1.23;;;0.60;;
11222;SDS011;5668;52.012;8.724;2023-04-01T01:47:13;1.17;;;0.67;;
11222;SDS011;5668;52.012;8.724;2023-04-01T01:49:41;1.37;;;0.70;;
11222;SDS011;5668;52.012;8.724;2023-04-01T01:52:12;0.90;;;0.50;;
11222;SDS011;5668;52.012;8.724;2023-04-01T01:54:47;0.63;;;0.53;;
11222;SDS011;5668;52.012;8.724;2023-04-01T01:57:15;1.33;;;0.50;;
11222;SDS011;5668;52.012;8.724;2023-04-01T01:59:45;1.13;;;0.63;;
11222;SDS011;5668;52.012;8.724;2023-04-01T02:02:14;1.37;;;0.50;;
11222;SDS011;5668;52.012;8.724;2023-04-01T02:04:43;1.23;;;0.53;;
11222;SDS011;5668;52.012;8.724;2023-04-01T02:07:13;1.47;;;0.60;;
11222;SDS011;5668;52.012;8.724;2023-04-01T02:09:48;1.47;;;0.60;;
11222;SDS011;5668;52.012;8.724;2023-04-01T02:12:16;0.63;;;0.43;;
11222;SDS011;5668;52.012;8.724;2023-04-01T02:14:50;1.33;;;0.67;;
11222;SDS011;5668;52.012;8.724;2023-04-01T02:17:21;1.90;;;0.60;;
11222;SDS011;5668;52.012;8.724;2023-04-01T02:19:52;1.70;;;0.50;;
11222;SDS011;5668;52.012;8.724;2023-04-01T02:22:23;0.77;;;0.60;;
11222;SDS011;5668;52.012;8.724;2023-04-01T02:24:53;0.63;;;0.50;;
11222;SDS011;5668;52.012;8.724;2023-04-01T02:27:24;2.47;;;0.77;;
11222;SDS011;5668;52.012;8.724;2023-04-01T02:29:52;0.80;;;0.50;;
11222;SDS011;5668;52.012;8.724;2023-04-01T02:32:19;1.03;;;0.60;;
11222;SDS011;5668;52.012;8.724;2023-04-01T02:34:47;0.87;;;0.50;;
11222;SDS011;5668;52.012;8.724;2023-04-01T02:37:15;0.67;;;0.40;;
11222;SDS011;5668;52.012;8.724;2023-04-01T02:39:44;0.50;;;0.50;;
11222;SDS011;5668;52.012;8.724;2023-04-01T02:42:13;1.40;;;0.60;;
11222;SDS011;5668;52.012;8.724;2023-04-01T02:44:40;1.20;;;0.60;;
11222;SDS011;5668;52.012;8.724;2023-04-01T02:47:07;1.03;;;0.50;;
11222;SDS011;5668;52.012;8.724;2023-04-01T02:49:35;1.43;;;0.43;;
11222;SDS011;5668;52.012;8.724;2023-04-01T02:52:02;0.80;;;0.60;;
11222;SDS011;5668;52.012;8.724;2023-04-01T02:54:30;1.40;;;0.60;;
11222;SDS011;5668;52.012;8.724;2023-04-01T02:56:58;0.50;;;0.50;;
11222;SDS011;5668;52.012;8.724;2023-04-01T02:59:25;0.90;;;0.50;;
11222;SDS011;5668;52.012;8.724;2023-04-01T03:01:53;1.00;;;0.60;;
11222;SDS011;5668;52.012;8.724;2023-04-01T03:04:20;0.60;;;0.60;;
11222;SDS011;5668;52.012;8.724;2023-04-01T03:06:47;1.03;;;0.50;;
11222;SDS011;5668;52.012;8.724;2023-04-01T03:09:14;1.30;;;0.50;;
11222;SDS011;5668;52.012;8.724;2023-04-01T03:11:42;2.13;;;0.60;;
11222;SDS011;5668;52.012;8.724;2023-04-01T03:14:10;2.67;;;0.60;;
11222;SDS011;5668;52.012;8.724;2023-04-01T03:16:38;1.20;;;0.60;;
11222;SDS011;5668;52.012;8.724;2023-04-01T03:19:05;1.17;;;0.60;;
11222;SDS011;5668;52.012;8.724;2023-04-01T03:21:32;0.80;;;0.50;;
11222;SDS011;5668;52.012;8.724;2023-04-01T03:23:59;2.10;;;0.63;;
11222;SDS011;5668;52.012;8.724;2023-04-01T03:26:26;1.50;;;0.60;;
11222;SDS011;5668;52.012;8.724;2023-04-01T03:28:54;1.40;;;0.57;;
11222;SDS011;5668;52.012;8.724;2023-04-01T03:31:23;0.93;;;0.60;;
11222;SDS011;5668;52.012;8.724;2023-04-01T03:33:50;1.87;;;0.70;;
11222;SDS011;5668;52.012;8.724;2023-04-01T03:36:17;1.43;;;0.50;;
11222;SDS011;5668;52.012;8.724;2023-04-01T03:38:45;2.03;;;0.60;;
11222;SDS011;5668;52.012;8.724;2023-04-01T03:41:12;1.23;;;0.53;;
11222;SDS011;5668;52.012;8.724;2023-04-01T03:43:40;1.10;;;0.60;;
11222;SDS011;5668;52.012;8.724;2023-04-01T03:46:08;1.93;;;0.63;;
11222;SDS011;5668;52.012;8.724;2023-04-01T03:48:36;3.30;;;0.70;;
11222;SDS011;5668;52.012;8.724;2023-04-01T03:51:06;1.13;;;0.70;;
11222;SDS011;5668;52.012;8.724;2023-04-01T03:53:33;2.83;;;0.63;;
11222;SDS011;5668;52.012;8.724;2023-04-01T03:56:03;2.83;;;0.60;;
11222;SDS011;5668;52.012;8.724;2023-04-01T03:58:30;2.93;;;0.60;;
11222;SDS011;5668;52.012;8.724;2023-04-01T04:00:58;0.67;;;0.60;;
11222;SDS011;5668;52.012;8.724;2023-04-01T04:03:25;0.90;;;0.40;;
11222;SDS011;5668;52.012;8.724;2023-04-01T04:05:55;2.50;;;0.90;;
11222;SDS011;5668;52.012;8.724;2023-04-01T04:08:22;1.73;;;0.70;;
11222;SDS011;5668;52.012;8.724;2023-04-01T04:10:54;0.50;;;0.50;;
11222;SDS011;5668;52.012;8.724;2023-04-01T04:13:21;0.50;;;0.50;;
11222;SDS011;5668;52.012;8.724;2023-04-01T04:15:49;0.40;;;0.40;;
11222;SDS011;5668;52.012;8.724;2023-04-01T04:18:16;0.83;;;0.50;;
11222;SDS011;5668;52.012;8.724;2023-04-01T04:20:43;0.43;;;0.40;;
11222;SDS011;5668;52.012;8.724;2023-04-01T04:23:14;0.97;;;0.40;;
11222;SDS011;5668;52.012;8.724;2023-04-01T04:25:41;1.27;;;0.43;;
11222;SDS011;5668;52.012;8.724;2023-04-01T04:28:20;1.53;;;0.50;;
11222;SDS011;5668;52.012;8.724;2023-04-01T04:30:47;0.40;;;0.40;;
11222;SDS011;5668;52.012;8.724;2023-04-01T04:33:15;0.63;;;0.50;;
11222;SDS011;5668;52.012;8.724;2023-04-01T04:35:42;0.43;;;0.43;;
11222;SDS011;5668;52.012;8.724;2023-04-01T04:38:09;0.63;;;0.50;;
11222;SDS011;5668;52.012;8.724;2023-04-01T04:40:38;1.07;;;0.60;;
11222;SDS011;5668;52.012;8.724;2023-04-01T04:43:06;0.60;;;0.43;;
11222;SDS011;5668;52.012;8.724;2023-04-01T04:45:36;0.43;;;0.40;;
11222;SDS011;5668;52.012;8.724;2023-04-01T04:48:03;1.67;;;0.50;;
11222;SDS011;5668;52.012;8.724;2023-04-01T04:50:31;1.13;;;0.47;;
11222;SDS011;5668;52.012;8.724;2023-04-01T04:52:58;1.23;;;0.60;;
11222;SDS011;5668;52.012;8.724;2023-04-01T04:55:25;0.47;;;0.47;;
11222;SDS011;5668;52.012;8.724;2023-04-01T04:57:54;2.10;;;0.70;;
11222;SDS011;5668;52.012;8.724;2023-04-01T05:00:21;2.30;;;0.50;;
11222;SDS011;5668;52.012;8.724;2023-04-01T05:02:48;0.97;;;0.50;;
11222;SDS011;5668;52.012;8.724;2023-04-01T05:05:16;0.80;;;0.40;;
11222;SDS011;5668;52.012;8.724;2023-04-01T05:07:43;1.47;;;0.50;;
11222;SDS011;5668;52.012;8.724;2023-04-01T05:10:10;0.73;;;0.47;;
11222;SDS011;5668;52.012;8.724;2023-04-01T05:12:38;0.40;;;0.40;;
11222;SDS011;5668;52.012;8.724;2023-04-01T05:15:08;0.40;;;0.40;;
11222;SDS011;5668;52.012;8.724;2023-04-01T05:17:35;0.40;;;0.40;;
11222;SDS011;5668;52.012;8.724;2023-04-01T05:20:03;0.43;;;0.40;;
11222;SDS011;5668;52.012;8.724;2023-04-01T05:22:32;0.47;;;0.47;;
11222;SDS011;5668;52.012;8.724;2023-04-01T05:24:59;0.70;;;0.50;;
11222;SDS011;5668;52.012;8.724;2023-04-01T05:27:26;1.47;;;0.57;;
11222;SDS011;5668;52.012;8.724;2023-04-01T05:29:53;0.40;;;0.40;;
11222;SDS011;5668;52.012;8.724;2023-04-01T05:32:22;0.80;;;0.50;;
11222;SDS011;5668;52.012;8.724;2023-04-01T05:34:50;0.40;;;0.40;;
11222;SDS011;5668;52.012;8.724;2023-04-01T05:37:17;0.70;;;0.43;;
11222;SDS011;5668;52.012;8.724;2023-04-01T05:39:45;0.47;;;0.47;;
11222;SDS011;5668;52.012;8.724;2023-04-01T05:42:12;0.50;;;0.50;;
11222;SDS011;5668;52.012;8.724;2023-04-01T05:44:40;0.50;;;0.50;;
11222;SDS011;5668;52.012;8.724;2023-04-01T05:47:08;0.40;;;0.40;;
11222;SDS011;5668;52.012;8.724;2023-04-01T05:49:36;1.47;;;0.53;;
11222;SDS011;5668;52.012;8.724;2023-04-01T05:52:03;0.40;;;0.40;;
11222;SDS011;5668;52.012;8.724;2023-04-01T05:54:31;1.23;;;0.43;;
11222;SDS011;5668;52.012;8.724;2023-04-01T05:56:59;0.50;;;0.50;;
11222;SDS011;5668;52.012;8.724;2023-04-01T05:59:26;0.50;;;0.50;;
11222;SDS011;5668;52.012;8.724;2023-04-01T06:01:53;0.40;;;0.40;;
11222;SDS011;5668;52.012;8.724;2023-04-01T06:04:20;0.50;;;0.47;;
11222;SDS011;5668;52.012;8.724;2023-04-01T06:06:49;0.40;;;0.40;;
11222;SDS011;5668;52.012;8.724;2023-04-01T06:09:18;0.80;;;0.57;;
11222;SDS011;5668;52.012;8.724;2023-04-01T06:12:03;1.47;;;0.50;;
11222;SDS011;5668;52.012;8.724;2023-04-01T06:14:48;0.50;;;0.40;;
11222;SDS011;5668;52.012;8.724;2023-04-01T06:17:25;0.50;;;0.40;;
11222;SDS011;5668;52.012;8.724;2023-04-01T06:20:11;0.67;;;0.40;;
11222;SDS011;5668;52.012;8.724;2023-04-01T06:22:51;0.50;;;0.50;;
11222;SDS011;5668;52.012;8.724;2023-04-01T06:25:40;0.63;;;0.40;;
11222;SDS011;5668;52.012;8.724;2023-04-01T06:28:31;0.40;;;0.40;;
11222;SDS011;5668;52.012;8.724;2023-04-01T06:31:19;0.80;;;0.80;;
11222;SDS011;5668;52.012;8.724;2023-04-01T06:34:00;25.57;;;22.93;;
11222;SDS011;5668;52.012;8.724;2023-04-01T06:36:48;11.97;;;10.87;;
11222;SDS011;5668;52.012;8.724;2023-04-01T06:39:41;8.00;;;7.30;;
11222;SDS011;5668;52.012;8.724;2023-04-01T06:42:28;4.93;;;4.53;;
11222;SDS011;5668;52.012;8.724;2023-04-01T06:45:07;2.43;;;2.23;;
11222;SDS011;5668;52.012;8.724;2023-04-01T06:47:47;1.43;;;1.33;;
11222;SDS011;5668;52.012;8.724;2023-04-01T06:50:24;1.10;;;0.90;;
11222;SDS011;5668;52.012;8.724;2023-04-01T06:52:58;1.00;;;1.00;;
11222;SDS011;5668;52.012;8.724;2023-04-01T06:55:35;2.23;;;1.00;;
11222;SDS011;5668;52.012;8.724;2023-04-01T06:58:10;1.33;;;1.23;;
11222;SDS011;5668;52.012;8.724;2023-04-01T07:00:44;1.70;;;1.60;;
11222;SDS011;5668;52.012;8.724;2023-04-01T07:03:16;1.60;;;1.50;;
11222;SDS011;5668;52.012;8.724;2023-04-01T07:05:48;1.90;;;1.80;;
11222;SDS011;5668;52.012;8.724;2023-04-01T07:08:17;2.77;;;2.53;;
11222;SDS011;5668;52.012;8.724;2023-04-01T07:10:50;2.20;;;2.00;;
11222;SDS011;5668;52.012;8.724;2023-04-01T07:13:22;1.70;;;1.60;;
11222;SDS011;5668;52.012;8.724;2023-04-01T07:15:56;1.53;;;1.43;;
11222;SDS011;5668;52.012;8.724;2023-04-01T07:18:32;1.53;;;1.20;;
11222;SDS011;5668;52.012;8.724;2023-04-01T07:21:08;2.40;;;2.20;;
11222;SDS011;5668;52.012;8.724;2023-04-01T07:23:44;2.70;;;2.50;;
11222;SDS011;5668;52.012;8.724;2023-04-01T07:26:17;2.60;;;2.40;;
11222;SDS011;5668;52.012;8.724;2023-04-01T07:28:46;2.20;;;2.10;;
11222;SDS011;5668;52.012;8.724;2023-04-01T07:31:16;1.60;;;1.50;;
11222;SDS011;5668;52.012;8.724;2023-04-01T07:33:55;1.13;;;1.03;;
11222;SDS011;5668;52.012;8.724;2023-04-01T07:36:32;0.70;;;0.70;;
11222;SDS011;5668;52.012;8.724;2023-04-01T07:39:07;1.00;;;0.70;;
11222;SDS011;5668;52.012;8.724;2023-04-01T07:41:48;1.23;;;0.87;;
11222;SDS011;5668;52.012;8.724;2023-04-01T07:44:25;0.63;;;0.63;;
11222;SDS011;5668;52.012;8.724;2023-04-01T07:47:10;1.03;;;0.70;;
11222;SDS011;5668;52.012;8.724;2023-04-01T07:50:07;0.73;;;0.73;;
11222;SDS011;5668;52.012;8.724;2023-04-01T07:52:41;1.07;;;0.60;;
11222;SDS011;5668;52.012;8.724;2023-04-01T07:55:18;0.60;;;0.60;;
11222;SDS011;5668;52.012;8.724;2023-04-01T07:57:52;1.30;;;0.60;;
11222;SDS011;5668;52.012;8.724;2023-04-01T08:00:29;0.63;;;0.63;;
11222;SDS011;5668;52.012;8.724;2023-04-01T08:03:10;0.60;;;0.60;;
11222;SDS011;5668;52.012;8.724;2023-04-01T08:05:49;1.63;;;0.70;;
11222;SDS011;5668;52.012;8.724;2023-04-01T08:08:25;0.80;;;0.63;;
11222;SDS011;5668;52.012;8.724;2023-04-01T08:11:04;1.00;;;0.80;;
11222;SDS011;5668;52.012;8.724;2023-04-01T08:13:42;0.90;;;0.60;;
11222;SDS011;5668;52.012;8.724;2023-04-01T08:16:16;0.70;;;0.60;;
11222;SDS011;5668;52.012;8.724;2023-04-01T08:18:51;0.60;;;0.60;;
11222;SDS011;5668;52.012;8.724;2023-04-01T08:21:27;1.23;;;0.80;;
11222;SDS011;5668;52.012;8.724;2023-04-01T08:24:00;2.00;;;0.70;;
11222;SDS011;5668;52.012;8.724;2023-04-01T08:26:37;0.77;;;0.60;;
11222;SDS011;5668;52.012;8.724;2023-04-01T08:29:11;0.70;;;0.60;;
11222;SDS011;5668;52.012;8.724;2023-04-01T08:31:45;2.07;;;0.60;;
11222;SDS011;5668;52.012;8.724;2023-04-01T08:34:19;0.93;;;0.63;;
11222;SDS011;5668;52.012;8.724;2023-04-01T08:36:50;1.83;;;0.70;;
11222;SDS011;5668;52.012;8.724;2023-04-01T08:39:22;0.60;;;0.60;;
11222;SDS011;5668;52.012;8.724;2023-04-01T08:42:00;0.90;;;0.60;;
11222;SDS011;5668;52.012;8.724;2023-04-01T08:53:31;0.60;;;0.60;;
11222;SDS011;5668;52.012;8.724;2023-04-01T08:56:12;4.13;;;3.50;;
11222;SDS011;5668;52.012;8.724;2023-04-01T08:58:47;6.73;;;6.13;;
11222;SDS011;5668;52.012;8.724;2023-04-01T09:04:31;6.10;;;5.50;;
11222;SDS011;5668;52.012;8.724;2023-04-01T09:07:18;16.47;;;14.87;;
11222;SDS011;5668;52.012;8.724;2023-04-01T09:10:11;8.27;;;7.47;;
11222;SDS011;5668;52.012;8.724;2023-04-01T09:22:02;14.60;;;11.70;;
11222;SDS011;5668;52.012;8.724;2023-04-01T09:24:56;21.07;;;16.90;;
11222;SDS011;5668;52.012;8.724;2023-04-01T09:27:32;25.97;;;19.07;;
11222;SDS011;5668;52.012;8.724;2023-04-01T09:33:17;19.10;;;14.97;;
11222;SDS011;5668;52.012;8.724;2023-04-01T09:36:11;19.60;;;15.70;;
11222;SDS011;5668;52.012;8.724;2023-04-01T09:38:53;6.60;;;5.37;;
11222;SDS011;5668;52.012;8.724;2023-04-01T09:41:27;15.43;;;11.30;;
11222;SDS011;5668;52.012;8.724;2023-04-01T09:44:00;25.03;;;18.27;;
11222;SDS011;5668;52.012;8.724;2023-04-01T09:46:34;17.23;;;12.47;;
11222;SDS011;5668;52.012;8.724;2023-04-01T09:49:26;16.20;;;11.30;;
11222;SDS011;5668;52.012;8.724;2023-04-01T09:52:24;19.43;;;13.97;;
11222;SDS011;5668;52.012;8.724;2023-04-01T09:58:16;7.03;;;5.00;;
11222;SDS011;5668;52.012;8.724;2023-04-01T10:01:11;28.07;;;19.27;;
11222;SDS011;5668;52.012;8.724;2023-04-01T10:07:06;15.20;;;9.00;;
11222;SDS011;5668;52.012;8.724;2023-04-01T10:10:09;19.50;;;12.70;;
11222;SDS011;5668;52.012;8.724;2023-04-01T10:13:14;17.00;;;11.23;;
11222;SDS011;5668;52.012;8.724;2023-04-01T10:25:40;9.20;;;6.43;;
11222;SDS011;5668;52.012;8.724;2023-04-01T10:34:41;8.20;;;4.30;;
11222;SDS011;5668;52.012;8.724;2023-04-01T10:37:33;6.53;;;4.17;;
11222;SDS011;5668;52.012;8.724;2023-04-01T10:40:26;7.27;;;4.40;;
11222;SDS011;5668;52.012;8.724;2023-04-01T10:43:35;7.90;;;4.43;;
11222;SDS011;5668;52.012;8.724;2023-04-01T10:46:32;8.23;;;4.97;;
11222;SDS011;5668;52.012;8.724;2023-04-01T10:49:34;7.33;;;4.37;;
11222;SDS011;5668;52.012;8.724;2023-04-01T10:56:03;3.37;;;1.67;;
11222;SDS011;5668;52.012;8.724;2023-04-01T11:11:44;1.50;;;1.00;;
11222;SDS011;5668;52.012;8.724;2023-04-01T11:14:50;1.67;;;0.80;;
11222;SDS011;5668;52.012;8.724;2023-04-01T11:18:00;3.30;;;1.20;;
11222;SDS011;5668;52.012;8.724;2023-04-01T11:21:02;2.90;;;1.00;;
11222;SDS011;5668;52.012;8.724;2023-04-01T11:24:02;0.50;;;0.50;;
11222;SDS011;5668;52.012;8.724;2023-04-01T11:26:47;0.90;;;0.70;;
11222;SDS011;5668;52.012;8.724;2023-04-01T11:29:30;0.50;;;0.50;;
11222;SDS011;5668;52.012;8.724;2023-04-01T11:32:19;0.60;;;0.50;;
11222;SDS011;5668;52.012;8.724;2023-04-01T11:34:57;1.63;;;1.10;;
11222;SDS011;5668;52.012;8.724;2023-04-01T11:37:49;1.53;;;1.10;;
11222;SDS011;5668;52.012;8.724;2023-04-01T11:40:25;2.30;;;1.20;;
11222;SDS011;5668;52.012;8.724;2023-04-01T11:43:01;1.17;;;0.80;;
11222;SDS011;5668;52.012;8.724;2023-04-01T11:45:36;1.10;;;0.80;;
11222;SDS011;5668;52.012;8.724;2023-04-01T11:48:13;0.80;;;0.70;;
11222;SDS011;5668;52.012;8.724;2023-04-01T11:51:10;1.27;;;0.60;;
11222;SDS011;5668;52.012;8.724;2023-04-01T11:53:52;0.70;;;0.70;;
11222;SDS011;5668;52.012;8.724;2023-04-01T12:02:14;0.50;;;0.50;;
11222;SDS011;5668;52.012;8.724;2023-04-01T12:04:49;0.50;;;0.50;;
11222;SDS011;5668;52.012;8.724;2023-04-01T12:07:51;1.33;;;0.50;;
11222;SDS011;5668;52.012;8.724;2023-04-01T12:10:33;0.50;;;0.50;;
11222;SDS011;5668;52.012;8.724;2023-04-01T12:13:07;0.90;;;0.63;;
11222;SDS011;5668;52.012;8.724;2023-04-01T12:15:56;1.73;;;0.47;;
11222;SDS011;5668;52.012;8.724;2023-04-01T12:18:46;1.03;;;0.80;;
11222;SDS011;5668;52.012;8.724;2023-04-01T12:21:23;2.53;;;1.13;;
11222;SDS011;5668;52.012;8.724;2023-04-01T12:23:58;2.97;;;1.10;;
11222;SDS011;5668;52.012;8.724;2023-04-01T12:26:46;3.93;;;0.97;;
11222;SDS011;5668;52.012;8.724;2023-04-01T12:32:18;5.23;;;2.13;;
11222;SDS011;5668;52.012;8.724;2023-04-01T12:35:00;3.53;;;1.77;;
11222;SDS011;5668;52.012;8.724;2023-04-01T12:37:46;2.70;;;1.30;;
11222;SDS011;5668;52.012;8.724;2023-04-01T12:40:31;2.97;;;1.57;;
11222;SDS011;5668;52.012;8.724;2023-04-01T12:43:18;1.73;;;1.40;;
11222;SDS011;5668;52.012;8.724;2023-04-01T12:46:11;3.20;;;1.47;;
11222;SDS011;5668;52.012;8.724;2023-04-01T12:48:54;1.70;;;1.10;;
11222;SDS011;5668;52.012;8.724;2023-04-01T12:51:50;0.80;;;0.80;;
11222;SDS011;5668;52.012;8.724;2023-04-01T12:54:37;5.03;;;2.77;;
11222;SDS011;5668;52.012;8.724;2023-04-01T12:57:26;3.03;;;1.80;;
11222;SDS011;5668;52.012;8.724;2023-04-01T13:00:23;1.20;;;1.10;;
11222;SDS011;5668;52.012;8.724;2023-04-01T13:03:12;2.00;;;1.50;;
11222;SDS011;5668;52.012;8.724;2023-04-01T13:06:10;1.60;;;1.33;;
11222;SDS011;5668;52.012;8.724;2023-04-01T13:08:49;1.57;;;1.00;;
11222;SDS011;5668;52.012;8.724;2023-04-01T13:11:29;1.50;;;0.93;;
11222;SDS011;5668;52.012;8.724;2023-04-01T13:17:13;3.93;;;1.20;;
11222;SDS011;5668;52.012;8.724;2023-04-01T13:19:47;1.20;;;0.70;;
11222;SDS011;5668;52.012;8.724;2023-04-01T13:22:22;9.43;;;8.73;;
11222;SDS011;5668;52.012;8.724;2023-04-01T13:24:57;6.90;;;6.50;;
11222;SDS011;5668;52.012;8.724;2023-04-01T13:27:33;4.10;;;3.80;;
11222;SDS011;5668;52.012;8.724;2023-04-01T13:30:11;1.90;;;1.80;;
11222;SDS011;5668;52.012;8.724;2023-04-01T13:32:50;1.90;;;1.80;;
11222;SDS011;5668;52.012;8.724;2023-04-01T13:35:34;2.33;;;1.70;;
11222;SDS011;5668;52.012;8.724;2023-04-01T13:38:16;1.30;;;1.20;;
11222;SDS011;5668;52.012;8.724;2023-04-01T13:41:10;1.37;;;1.10;;
11222;SDS011;5668;52.012;8.724;2023-04-01T13:43:45;1.63;;;0.80;;
11222;SDS011;5668;52.012;8.724;2023-04-01T13:46:22;1.87;;;1.37;;
11222;SDS011;5668;52.012;8.724;2023-04-01T13:52:04;1.97;;;1.20;;
11222;SDS011;5668;52.012;8.724;2023-04-01T13:55:05;8.87;;;3.40;;
11222;SDS011;5668;52.012;8.724;2023-04-01T13:58:04;3.77;;;2.13;;
11222;SDS011;5668;52.012;8.724;2023-04-01T14:00:57;6.83;;;3.00;;
11222;SDS011;5668;52.012;8.724;2023-04-01T14:03:35;3.10;;;1.87;;
11222;SDS011;5668;52.012;8.724;2023-04-01T14:06:23;2.13;;;1.13;;
11222;SDS011;5668;52.012;8.724;2023-04-01T14:12:13;1.23;;;1.00;;
11222;SDS011;5668;52.012;8.724;2023-04-01T14:14:58;7.17;;;1.70;;
11222;SDS011;5668;52.012;8.724;2023-04-01T14:17:47;17.57;;;3.90;;
11222;SDS011;5668;52.012;8.724;2023-04-01T14:20:28;3.43;;;1.60;;
11222;SDS011;5668;52.012;8.724;2023-04-01T14:28:51;1.97;;;1.03;;
11222;SDS011;5668;52.012;8.724;2023-04-01T14:31:38;1.57;;;1.10;;
11222;SDS011;5668;52.012;8.724;2023-04-01T14:34:28;1.17;;;1.03;;
11222;SDS011;5668;52.012;8.724;2023-04-01T14:37:19;2.23;;;1.10;;
11222;SDS011;5668;52.012;8.724;2023-04-01T14:40:04;1.13;;;1.10;;
11222;SDS011;5668;52.012;8.724;2023-04-01T14:42:55;1.20;;;1.10;;
11222;SDS011;5668;52.012;8.724;2023-04-01T14:45:46;1.10;;;1.00;;
11222;SDS011;5668;52.012;8.724;2023-04-01T14:48:25;1.80;;;1.30;;
11222;SDS011;5668;52.012;8.724;2023-04-01T14:51:02;1.30;;;1.10;;
11222;SDS011;5668;52.012;8.724;2023-04-01T14:53:36;0.90;;;0.90;;
11222;SDS011;5668;52.012;8.724;2023-04-01T14:56:10;1.20;;;1.10;;
11222;SDS011;5668;52.012;8.724;2023-04-01T14:58:43;1.83;;;1.20;;
11222;SDS011;5668;52.012;8.724;2023-04-01T15:01:25;1.57;;;1.47;;
11222;SDS011;5668;52.012;8.724;2023-04-01T15:04:09;1.10;;;1.00;;
11222;SDS011;5668;52.012;8.724;2023-04-01T15:07:06;1.20;;;1.10;;
11222;SDS011;5668;52.012;8.724;2023-04-01T15:09:50;2.20;;;2.10;;
11222;SDS011;5668;52.012;8.724;2023-04-01T15:12:29;5.33;;;4.93;;
11222;SDS011;5668;52.012;8.724;2023-04-01T15:15:14;6.53;;;6.00;;
11222;SDS011;5668;52.012;8.724;2023-04-01T15:17:57;4.10;;;3.80;;
11222;SDS011;5668;52.012;8.724;2023-04-01T15:20:33;4.77;;;4.40;;
11222;SDS011;5668;52.012;8.724;2023-04-01T15:23:18;6.80;;;6.20;;
11222;SDS011;5668;52.012;8.724;2023-04-01T15:29:11;10.07;;;9.27;;
11222;SDS011;5668;52.012;8.724;2023-04-01T15:32:01;11.33;;;10.33;;
11222;SDS011;5668;52.012;8.724;2023-04-01T15:34:40;16.67;;;15.27;;
11222;SDS011;5668;52.012;8.724;2023-04-01T15:37:13;8.17;;;7.50;;
11222;SDS011;5668;52.012;8.724;2023-04-01T15:39:49;18.43;;;16.83;;
11222;SDS011;5668;52.012;8.724;2023-04-01T15:42:25;10.53;;;9.70;;
11222;SDS011;5668;52.012;8.724;2023-04-01T15:45:26;21.00;;;19.10;;
11222;SDS011;5668;52.012;8.724;2023-04-01T15:48:19;20.30;;;18.50;;
11222;SDS011;5668;52.012;8.724;2023-04-01T15:51:09;13.97;;;12.87;;
11222;SDS011;5668;52.012;8.724;2023-04-01T15:53:52;24.37;;;22.17;;
11222;SDS011;5668;52.012;8.724;2023-04-01T15:56:36;28.40;;;25.73;;
11222;SDS011;5668;52.012;8.724;2023-04-01T15:59:16;31.00;;;28.03;;
11222;SDS011;5668;52.012;8.724;2023-04-01T16:01:54;26.43;;;24.03;;
11222;SDS011;5668;52.012;8.724;2023-04-01T16:04:38;19.07;;;17.37;;
11222;SDS011;5668;52.012;8.724;2023-04-01T16:07:36;8.87;;;8.10;;
11222;SDS011;5668;52.012;8.724;2023-04-01T16:10:16;59.73;;;53.80;;
11222;SDS011;5668;52.012;8.724;2023-04-01T16:13:13;15.70;;;14.30;;
11222;SDS011;5668;52.012;8.724;2023-04-01T16:16:00;11.07;;;9.90;;
11222;SDS011;5668;52.012;8.724;2023-04-01T16:18:50;9.30;;;8.60;;
11222;SDS011;5668;52.012;8.724;2023-04-01T16:21:34;13.10;;;12.10;;
11222;SDS011;5668;52.012;8.724;2023-04-01T16:24:10;11.07;;;10.27;;
11222;SDS011;5668;52.012;8.724;2023-04-01T16:26:43;7.80;;;7.20;;
11222;SDS011;5668;52.012;8.724;2023-04-01T16:29:18;7.37;;;6.63;;
11222;SDS011;5668;52.012;8.724;2023-04-01T16:31:55;7.37;;;6.83;;
11222;SDS011;5668;52.012;8.724;2023-04-01T16:34:31;5.00;;;4.60;;
11222;SDS011;5668;52.012;8.724;2023-04-01T16:37:05;10.63;;;9.67;;
11222;SDS011;5668;52.012;8.724;2023-04-01T16:39:43;9.63;;;8.73;;
11222;SDS011;5668;52.012;8.724;2023-04-01T16:45:15;14.67;;;13.30;;
11222;SDS011;5668;52.012;8.724;2023-04-01T16:47:51;18.33;;;16.60;;
11222;SDS011;5668;52.012;8.724;2023-04-01T16:50:23;40.03;;;36.27;;
11222;SDS011;5668;52.012;8.724;2023-04-01T16:52:57;31.43;;;28.63;;
11222;SDS011;5668;52.012;8.724;2023-04-01T16:55:35;7.17;;;6.03;;
11222;SDS011;5668;52.012;8.724;2023-04-01T16:58:14;3.03;;;2.83;;
11222;SDS011;5668;52.012;8.724;2023-04-01T17:00:49;2.17;;;1.70;;
11222;SDS011;5668;52.012;8.724;2023-04-01T17:03:22;2.80;;;1.60;;
11222;SDS011;5668;52.012;8.724;2023-04-01T17:06:00;1.60;;;1.43;;
11222;SDS011;5668;52.012;8.724;2023-04-01T17:08:42;2.13;;;1.80;;
11222;SDS011;5668;52.012;8.724;2023-04-01T17:11:24;2.17;;;1.90;;
11222;SDS011;5668;52.012;8.724;2023-04-01T17:13:58;4.90;;;4.50;;
11222;SDS011;5668;52.012;8.724;2023-04-01T17:16:48;2.57;;;2.30;;
11222;SDS011;5668;52.012;8.724;2023-04-01T17:19:31;1.50;;;1.40;;
11222;SDS011;5668;52.012;8.724;2023-04-01T17:22:27;1.47;;;1.33;;
11222;SDS011;5668;52.012;8.724;2023-04-01T17:25:02;2.10;;;1.80;;
11222;SDS011;5668;52.012;8.724;2023-04-01T17:27:46;1.60;;;1.50;;
11222;SDS011;5668;52.012;8.724;2023-04-01T17:30:21;1.30;;;1.20;;
11222;SDS011;5668;52.012;8.724;2023-04-01T17:33:07;1.77;;;1.50;;